Haukanier, Texas
Current Conditions -  °F | °C
As of 7:35 AM on Thursday 30 Oct 2014 (Local Time) from KBMT Reporting Station
Clear Clear  
Wind Chill: 52°   Ceiling: Unl
Heat Index: 52°   Visibility: 10mi
Dew Point: 48°   Wind: 6mph
Humidity: 86%   Direction: 30°NNE
Pressure: 30.13"   Gusts: NA
Location:  29.8747°N, 94.58°W
Report Text: KBMT 301235Z AUTO 03005KT 10SM CLR 11/09 A3013 RMK AO2 T01100088
Loading
Personal Weather Stations






























Interactive Weather Map
Tropical Storm Tracking
New forecast layout! Learn more

10-Day Weather Forecast

Advertisements
Track Severe Weather on mobile